createdAt,value
2022-09-15T00:00:28.635Z,17.00
2022-09-15T00:01:31.652Z,16.90
2022-09-15T00:02:33.964Z,17.00
2022-09-15T00:03:36.981Z,16.90
2022-09-15T00:04:39.027Z,16.90
2022-09-15T00:05:42.173Z,16.90
2022-09-15T00:06:44.106Z,16.90
2022-09-15T00:07:47.326Z,16.90
2022-09-15T00:08:49.633Z,17.00
2022-09-15T00:09:52.550Z,17.00
2022-09-15T00:10:58.467Z,17.00
2022-09-15T00:12:01.925Z,17.00
2022-09-15T00:13:04.074Z,17.00
2022-09-15T00:14:08.970Z,17.00
2022-09-15T00:15:13.322Z,17.00
2022-09-15T00:16:18.138Z,16.90
2022-09-15T00:17:20.593Z,17.00
2022-09-15T00:18:23.567Z,17.00
2022-09-15T00:19:25.520Z,17.00
2022-09-15T00:20:28.461Z,16.90
2022-09-15T00:21:33.810Z,17.00
2022-09-15T00:22:35.718Z,17.00
2022-09-15T00:23:39.498Z,16.90
2022-09-15T00:24:41.495Z,17.00
2022-09-15T00:25:45.884Z,17.00
2022-09-15T00:26:49.253Z,16.90
2022-09-15T00:27:52.165Z,17.00
2022-09-15T00:28:54.921Z,16.90
2022-09-15T00:29:57.883Z,17.00
2022-09-15T00:31:00.169Z,17.00
2022-09-15T00:32:03.604Z,17.00
2022-09-15T00:33:05.544Z,17.00
2022-09-15T00:34:08.509Z,17.00
2022-09-15T00:35:10.422Z,17.00
2022-09-15T00:36:14.351Z,16.90
2022-09-15T00:37:16.428Z,17.00
2022-09-15T00:38:20.233Z,17.00
2022-09-15T00:39:23.380Z,17.00
2022-09-15T00:40:25.601Z,17.00
2022-09-15T00:41:28.809Z,17.00
2022-09-15T00:42:32.212Z,17.00
2022-09-15T00:43:50.490Z,17.10
2022-09-15T00:44:57.109Z,17.10
2022-09-15T00:45:59.084Z,17.10
2022-09-15T00:47:18.721Z,17.00
2022-09-15T00:48:24.005Z,17.10
2022-09-15T00:49:30.149Z,17.10
2022-09-15T00:50:34.358Z,17.10
2022-09-15T00:51:47.802Z,17.10
2022-09-15T00:52:56.841Z,17.20
2022-09-15T00:54:02.662Z,17.10
2022-09-15T00:55:08.762Z,17.10
2022-09-15T00:56:13.026Z,17.10
2022-09-15T00:57:19.333Z,17.10
2022-09-15T00:58:25.639Z,17.10
2022-09-15T00:59:31.095Z,17.10
2022-09-15T01:00:34.571Z,17.20
2022-09-15T01:01:37.684Z,17.10
2022-09-15T01:02:42.387Z,17.10
2022-09-15T01:03:45.654Z,17.10
2022-09-15T01:04:48.661Z,17.20
2022-09-15T01:05:55.877Z,17.10
2022-09-15T01:07:02.309Z,17.20
2022-09-15T01:08:09.798Z,17.20
2022-09-15T01:09:17.119Z,17.20
2022-09-15T01:10:24.310Z,17.20
2022-09-15T01:11:26.482Z,17.20
2022-09-15T01:12:29.797Z,17.20
2022-09-15T01:13:33.066Z,17.20
2022-09-15T01:14:36.193Z,17.20
2022-09-15T01:15:48.377Z,17.20
2022-09-15T01:16:59.845Z,17.20
2022-09-15T01:18:14.917Z,17.20
2022-09-15T01:19:46.203Z,17.20
2022-09-15T01:21:10.818Z,17.20
2022-09-15T01:22:25.666Z,17.30
2022-09-15T01:24:01.671Z,17.30
2022-09-15T01:25:10.484Z,17.20
2022-09-15T01:26:42.225Z,17.20
2022-09-15T01:28:24.909Z,17.20
2022-09-15T01:29:52.164Z,17.20
2022-09-15T01:31:01.071Z,17.10
2022-09-15T01:32:35.461Z,17.10
2022-09-15T01:33:47.182Z,17.10
2022-09-15T01:34:56.717Z,17.10
2022-09-15T01:36:10.084Z,17.10
2022-09-15T01:37:17.659Z,17.10
2022-09-15T01:38:31.513Z,17.00
2022-09-15T01:39:38.305Z,17.00
2022-09-15T01:40:46.428Z,17.10
2022-09-15T01:41:53.549Z,17.10
2022-09-15T01:42:57.869Z,17.10
2022-09-15T01:44:05.608Z,17.00
2022-09-15T01:45:13.018Z,17.00
2022-09-15T01:46:16.854Z,17.00
2022-09-15T01:47:22.128Z,17.00
2022-09-15T01:48:25.752Z,17.00
2022-09-15T01:49:32.437Z,17.00
2022-09-15T01:50:37.627Z,17.00
2022-09-15T01:51:41.505Z,17.00
2022-09-15T01:52:48.858Z,17.00
2022-09-15T01:53:53.953Z,17.00
2022-09-15T01:54:58.831Z,17.00
2022-09-15T01:56:05.109Z,17.10
2022-09-15T01:57:07.089Z,17.00
2022-09-15T01:58:10.238Z,17.00
2022-09-15T01:59:12.365Z,17.00
2022-09-15T02:00:17.090Z,17.00
2022-09-15T02:01:28.039Z,17.00
2022-09-15T02:02:35.734Z,17.00
2022-09-15T02:03:46.028Z,17.00
2022-09-15T02:04:52.209Z,17.00
2022-09-15T02:06:02.755Z,17.00
2022-09-15T02:07:11.716Z,17.10
2022-09-15T02:08:25.079Z,17.00
2022-09-15T02:09:33.234Z,17.00
2022-09-15T02:10:41.392Z,17.10
2022-09-15T02:12:08.856Z,17.10
2022-09-15T02:13:16.918Z,17.10
2022-09-15T02:14:32.250Z,17.10
2022-09-15T02:15:42.851Z,17.20
2022-09-15T02:16:53.374Z,17.10
2022-09-15T02:17:59.086Z,17.20
2022-09-15T02:19:14.917Z,17.10
2022-09-15T02:20:23.635Z,17.20
2022-09-15T02:21:32.170Z,17.20
2022-09-15T02:22:37.986Z,17.10
2022-09-15T02:23:44.963Z,17.20
2022-09-15T02:24:52.707Z,17.10
2022-09-15T02:26:04.641Z,17.20
2022-09-15T02:27:10.321Z,17.20
2022-09-15T02:28:16.266Z,17.10
2022-09-15T02:29:21.152Z,17.10
2022-09-15T02:30:25.099Z,17.10
2022-09-15T02:31:30.835Z,17.10
2022-09-15T02:32:35.962Z,17.10
2022-09-15T02:33:44.141Z,17.10
2022-09-15T02:34:50.446Z,17.10
2022-09-15T02:35:52.910Z,17.10
2022-09-15T02:36:57.542Z,17.10
2022-09-15T02:38:01.080Z,17.10
2022-09-15T02:39:09.102Z,17.10
2022-09-15T02:40:11.938Z,17.20
2022-09-15T02:41:14.894Z,17.00
2022-09-15T02:42:24.763Z,17.10
2022-09-15T02:43:28.052Z,17.10
2022-09-15T02:44:31.008Z,17.10
2022-09-15T02:46:39.115Z,17.10
2022-09-15T02:48:44.505Z,17.10
2022-09-15T02:49:47.473Z,17.10
2022-09-15T02:50:49.412Z,17.10
2022-09-15T02:51:52.343Z,17.10
2022-09-15T02:52:54.753Z,17.10
2022-09-15T02:53:57.672Z,17.10
2022-09-15T02:55:00.764Z,17.10
2022-09-15T02:56:05.919Z,17.10
2022-09-15T02:57:07.882Z,17.10
2022-09-15T02:58:10.830Z,17.10
2022-09-15T02:59:12.908Z,17.10
2022-09-15T03:00:19.389Z,17.10
2022-09-15T03:01:26.797Z,17.10
2022-09-15T03:02:31.589Z,17.10
2022-09-15T03:03:34.667Z,17.00
2022-09-15T03:04:37.545Z,17.10
2022-09-15T03:05:39.504Z,17.10
2022-09-15T03:06:43.531Z,17.10
2022-09-15T03:07:45.547Z,17.10
2022-09-15T03:08:52.788Z,17.10
2022-09-15T03:09:54.797Z,17.10
2022-09-15T03:10:58.493Z,17.10
2022-09-15T03:12:00.409Z,17.10
2022-09-15T03:13:03.330Z,17.10
2022-09-15T03:14:06.630Z,17.10
2022-09-15T03:15:11.738Z,17.10
2022-09-15T03:16:16.041Z,17.10
2022-09-15T03:17:19.066Z,17.10
2022-09-15T03:18:22.381Z,17.10
2022-09-15T03:19:25.737Z,17.10
2022-09-15T03:20:28.656Z,17.10
2022-09-15T03:21:31.985Z,17.10
2022-09-15T03:22:34.009Z,17.10
2022-09-15T03:23:37.269Z,17.10
2022-09-15T03:24:39.273Z,17.10
2022-09-15T03:25:42.173Z,17.10
2022-09-15T03:26:44.113Z,17.20
2022-09-15T03:27:47.377Z,17.10
2022-09-15T03:28:50.045Z,17.20
2022-09-15T03:29:52.977Z,17.10
2022-09-15T03:30:55.474Z,17.10
2022-09-15T03:31:58.482Z,17.20
2022-09-15T03:33:00.485Z,17.10
2022-09-15T03:34:04.897Z,17.10
2022-09-15T03:35:07.728Z,17.10
2022-09-15T03:36:11.089Z,17.10
2022-09-15T03:37:13.058Z,17.10
2022-09-15T03:38:16.509Z,17.10
2022-09-15T03:39:18.429Z,17.20
2022-09-15T03:40:21.407Z,17.10
2022-09-15T03:41:23.609Z,17.10
2022-09-15T03:42:26.787Z,17.10
2022-09-15T03:43:29.086Z,17.10
2022-09-15T03:44:32.179Z,17.10
2022-09-15T03:45:34.133Z,17.10
2022-09-15T03:46:37.496Z,17.10
2022-09-15T03:47:39.409Z,17.10
2022-09-15T03:48:42.397Z,17.10
2022-09-15T03:49:45.684Z,17.10
2022-09-15T03:50:49.080Z,17.10
2022-09-15T03:51:51.442Z,17.10
2022-09-15T03:52:58.644Z,17.10
2022-09-15T03:54:00.809Z,17.10
2022-09-15T03:55:03.721Z,17.10
2022-09-15T03:56:10.642Z,17.10
2022-09-15T03:57:13.538Z,17.10
2022-09-15T03:59:20.785Z,17.10
2022-09-15T04:00:22.941Z,17.10
2022-09-15T04:01:26.215Z,17.10
2022-09-15T04:02:28.230Z,17.20
2022-09-15T04:03:31.632Z,17.10
2022-09-15T04:04:33.610Z,17.10
2022-09-15T04:05:38.731Z,17.10
2022-09-15T04:06:41.661Z,17.10
2022-09-15T04:07:44.658Z,17.10
2022-09-15T04:08:46.837Z,17.10
2022-09-15T04:09:49.784Z,17.10
2022-09-15T04:10:51.789Z,17.10
2022-09-15T04:11:54.693Z,17.10
2022-09-15T04:12:56.982Z,17.00
2022-09-15T04:14:00.265Z,17.10
2022-09-15T04:15:03.965Z,17.10
2022-09-15T04:16:09.079Z,17.10
2022-09-15T04:17:11.577Z,17.00
2022-09-15T04:18:14.476Z,17.10
2022-09-15T04:19:16.419Z,17.10
2022-09-15T04:20:19.360Z,17.10
2022-09-15T04:21:24.910Z,17.10
2022-09-15T04:22:27.830Z,17.10
2022-09-15T04:23:30.063Z,17.10
2022-09-15T04:24:33.082Z,17.10
2022-09-15T04:26:38.502Z,17.10
2022-09-15T04:27:40.450Z,17.10
2022-09-15T04:28:43.370Z,17.10
2022-09-15T04:29:45.337Z,17.10
2022-09-15T04:30:48.264Z,17.10
2022-09-15T04:31:50.622Z,17.00
2022-09-15T04:32:53.902Z,17.00
2022-09-15T04:33:56.647Z,17.00
2022-09-15T04:34:59.567Z,17.10
2022-09-15T04:36:02.721Z,17.00
2022-09-15T04:37:07.477Z,17.00
2022-09-15T04:38:09.663Z,16.90
2022-09-15T04:39:12.561Z,17.00
2022-09-15T04:40:14.700Z,17.00
2022-09-15T04:41:18.164Z,17.00
2022-09-15T04:43:24.824Z,17.00
2022-09-15T04:44:26.830Z,17.00
2022-09-15T04:45:29.736Z,17.00
2022-09-15T04:46:31.956Z,17.00
2022-09-15T04:47:34.914Z,17.00
2022-09-15T04:48:37.801Z,17.00
2022-09-15T04:49:40.707Z,17.00
2022-09-15T04:50:42.854Z,17.00
2022-09-15T04:52:49.545Z,17.10
2022-09-15T04:53:53.100Z,17.10
2022-09-15T04:54:55.108Z,17.10
2022-09-15T04:56:04.589Z,17.10
2022-09-15T04:57:06.791Z,17.10
2022-09-15T04:58:10.247Z,17.00
2022-09-15T04:59:14.820Z,17.10
2022-09-15T05:00:17.892Z,17.10
2022-09-15T05:01:22.676Z,17.00
2022-09-15T05:02:25.969Z,17.00
2022-09-15T05:03:27.906Z,17.00
2022-09-15T05:04:30.868Z,17.00
2022-09-15T05:05:34.445Z,17.00
2022-09-15T05:06:38.437Z,17.00
2022-09-15T05:07:40.920Z,17.00
2022-09-15T05:08:48.181Z,17.00
2022-09-15T05:09:50.158Z,17.00
2022-09-15T05:10:53.289Z,17.00
2022-09-15T05:11:55.313Z,17.00
2022-09-15T05:12:58.247Z,17.00
2022-09-15T05:14:00.676Z,17.00
2022-09-15T05:15:43.518Z,17.00
2022-09-15T05:16:46.437Z,17.00
2022-09-15T05:18:54.424Z,17.00
2022-09-15T05:19:56.349Z,17.00
2022-09-15T05:21:00.165Z,17.00
2022-09-15T05:22:02.089Z,17.00
2022-09-15T05:23:05.020Z,17.00
2022-09-15T05:24:08.449Z,17.00
2022-09-15T05:25:11.916Z,17.00
2022-09-15T05:26:15.900Z,17.00
2022-09-15T05:27:19.462Z,17.00
2022-09-15T05:28:21.396Z,17.00
2022-09-15T05:29:24.360Z,17.00
2022-09-15T05:30:38.706Z,17.10
2022-09-15T05:31:42.707Z,17.00
2022-09-15T05:32:44.713Z,17.00
2022-09-15T05:33:48.843Z,17.00
2022-09-15T05:34:50.745Z,17.00
2022-09-15T05:35:55.094Z,17.10
2022-09-15T05:36:58.250Z,17.00
2022-09-15T05:38:00.153Z,17.00
2022-09-15T05:39:03.305Z,17.00
2022-09-15T05:40:08.732Z,17.10
2022-09-15T05:41:17.601Z,17.00
2022-09-15T05:42:19.509Z,17.10
2022-09-15T05:43:22.449Z,17.10
2022-09-15T05:44:24.380Z,17.10
2022-09-15T05:45:27.320Z,17.10
2022-09-15T05:46:30.527Z,17.10
2022-09-15T05:47:32.813Z,17.10
2022-09-15T05:48:36.197Z,17.10
2022-09-15T05:49:39.133Z,17.10
2022-09-15T05:50:49.603Z,17.10
2022-09-15T05:51:52.537Z,17.10
2022-09-15T05:52:54.445Z,17.10
2022-09-15T05:53:57.394Z,17.10
2022-09-15T05:54:59.492Z,17.10
2022-09-15T05:56:05.852Z,17.10
2022-09-15T05:57:07.777Z,17.20
2022-09-15T05:58:10.872Z,17.20
2022-09-15T05:59:13.147Z,17.20
2022-09-15T06:00:16.650Z,17.20
2022-09-15T06:01:20.029Z,17.20
2022-09-15T06:02:23.083Z,17.20
2022-09-15T06:04:34.159Z,17.20
2022-09-15T06:05:36.122Z,17.30
2022-09-15T06:06:39.059Z,17.20
2022-09-15T06:07:41.144Z,17.20
2022-09-15T06:08:48.205Z,17.20
2022-09-15T06:09:50.630Z,17.20
2022-09-15T06:10:53.538Z,17.30
2022-09-15T06:11:56.818Z,17.30
2022-09-15T06:12:59.838Z,17.20
2022-09-15T06:14:03.155Z,17.30
2022-09-15T06:15:07.057Z,17.20
2022-09-15T06:16:10.879Z,17.30
2022-09-15T06:17:13.873Z,17.20
2022-09-15T06:18:16.300Z,17.20
2022-09-15T06:19:19.339Z,17.30
2022-09-15T06:20:21.372Z,17.20
2022-09-15T06:21:25.779Z,17.30
2022-09-15T06:22:28.581Z,17.30
2022-09-15T06:23:32.314Z,17.30
2022-09-15T06:24:34.475Z,17.30
2022-09-15T06:26:40.617Z,17.30
2022-09-15T06:27:43.906Z,17.30
2022-09-15T06:28:50.433Z,17.30
2022-09-15T06:29:52.393Z,17.30
2022-09-15T06:30:55.296Z,17.30
2022-09-15T06:32:02.553Z,17.30
2022-09-15T06:33:04.621Z,17.30
2022-09-15T06:34:08.617Z,17.30
2022-09-15T06:35:10.569Z,17.40
2022-09-15T06:36:14.177Z,17.40
2022-09-15T06:37:16.307Z,17.30
2022-09-15T06:38:19.213Z,17.30
2022-09-15T06:39:22.150Z,17.30
2022-09-15T06:40:24.429Z,17.40
2022-09-15T06:41:38.281Z,17.40
2022-09-15T06:42:46.851Z,17.40
2022-09-15T06:43:49.378Z,17.40
2022-09-15T06:44:52.383Z,17.40
2022-09-15T06:46:02.356Z,17.40
2022-09-15T06:47:07.243Z,17.40
2022-09-15T06:48:23.950Z,17.40
2022-09-15T06:49:27.598Z,17.40
2022-09-15T06:50:30.968Z,17.50
2022-09-15T06:51:35.597Z,17.40
2022-09-15T06:52:37.625Z,17.50
2022-09-15T06:53:40.804Z,17.40
2022-09-15T06:54:42.741Z,17.40
2022-09-15T06:55:45.637Z,17.40
2022-09-15T06:56:47.596Z,17.40
2022-09-15T06:57:52.591Z,17.40
2022-09-15T06:59:58.881Z,17.50
2022-09-15T07:01:02.402Z,17.40
2022-09-15T07:02:05.554Z,17.40
2022-09-15T07:03:07.621Z,17.40
2022-09-15T07:04:11.001Z,17.40
2022-09-15T07:06:16.206Z,17.40
2022-09-15T07:07:18.398Z,17.40
2022-09-15T07:09:23.614Z,17.40
2022-09-15T07:10:26.622Z,17.40
2022-09-15T07:11:29.005Z,17.40
2022-09-15T07:12:32.427Z,17.50
2022-09-15T07:13:36.266Z,17.40
2022-09-15T07:14:39.237Z,17.40
2022-09-15T07:15:41.155Z,17.50
2022-09-15T07:16:44.159Z,17.50
2022-09-15T07:17:46.089Z,17.50
2022-09-15T07:18:49.817Z,17.40
2022-09-15T07:19:52.010Z,17.40
2022-09-15T07:20:59.831Z,17.40
2022-09-15T07:22:02.725Z,17.40
2022-09-15T07:23:04.685Z,17.40
2022-09-15T07:24:07.949Z,17.50
2022-09-15T07:25:10.217Z,17.40
2022-09-15T07:26:15.352Z,17.50
2022-09-15T07:27:17.273Z,17.40
2022-09-15T07:28:20.206Z,17.40
2022-09-15T07:29:24.493Z,17.50
2022-09-15T07:30:26.437Z,17.40
2022-09-15T07:31:32.044Z,17.50
2022-09-15T07:32:34.201Z,17.50
2022-09-15T07:33:37.932Z,17.50
2022-09-15T07:34:39.901Z,17.40
2022-09-15T07:35:43.462Z,17.50
2022-09-15T07:36:46.385Z,17.50
2022-09-15T07:37:48.563Z,17.40
2022-09-15T07:38:51.938Z,17.50
2022-09-15T07:39:53.901Z,17.40
2022-09-15T07:41:03.066Z,17.40
2022-09-15T07:42:06.197Z,17.50
2022-09-15T07:43:08.233Z,17.50
2022-09-15T07:44:13.267Z,17.50
2022-09-15T07:45:16.671Z,17.50
2022-09-15T07:46:20.426Z,17.50
2022-09-15T07:47:23.403Z,17.50
2022-09-15T07:48:26.602Z,17.50
2022-09-15T07:49:29.898Z,17.50
2022-09-15T07:50:31.896Z,17.50
2022-09-15T07:51:34.843Z,17.50
2022-09-15T07:52:36.831Z,17.50
2022-09-15T07:53:39.851Z,17.50
2022-09-15T07:54:41.921Z,17.40
2022-09-15T07:55:44.840Z,17.50
2022-09-15T07:56:46.982Z,17.50
2022-09-15T07:57:58.385Z,17.40
2022-09-15T07:59:00.358Z,17.50
2022-09-15T08:00:04.441Z,17.50
2022-09-15T08:01:11.215Z,17.50
2022-09-15T08:02:18.351Z,17.50
2022-09-15T08:03:20.318Z,17.60
2022-09-15T08:04:23.285Z,17.60
2022-09-15T08:05:28.159Z,17.60
2022-09-15T08:07:33.400Z,17.60
2022-09-15T08:08:37.928Z,17.60
2022-09-15T08:09:41.505Z,17.60
2022-09-15T08:10:43.477Z,17.60
2022-09-15T08:11:46.365Z,17.60
2022-09-15T08:12:48.337Z,17.70
2022-09-15T08:13:52.387Z,17.70
2022-09-15T08:14:55.354Z,17.70
2022-09-15T08:15:57.397Z,17.70
2022-09-15T08:17:08.167Z,17.70
2022-09-15T08:18:12.891Z,17.80
2022-09-15T08:19:15.858Z,17.80
2022-09-15T08:20:18.298Z,17.80
2022-09-15T08:21:22.175Z,17.70
2022-09-15T08:22:24.173Z,17.80
2022-09-15T08:23:27.105Z,17.80
2022-09-15T08:24:29.218Z,17.80
2022-09-15T08:25:32.278Z,17.70
2022-09-15T08:26:38.321Z,17.80
2022-09-15T08:27:40.411Z,17.80
2022-09-15T08:28:43.929Z,17.70
2022-09-15T08:29:46.024Z,17.70
2022-09-15T08:30:48.980Z,17.70
2022-09-15T08:31:51.946Z,17.70
2022-09-15T08:32:56.374Z,17.70
2022-09-15T08:34:03.836Z,17.70
2022-09-15T08:35:07.607Z,17.70
2022-09-15T08:36:11.486Z,17.80
2022-09-15T08:37:14.442Z,17.80
2022-09-15T08:38:16.365Z,17.80
2022-09-15T08:39:19.406Z,17.80
2022-09-15T08:40:25.338Z,17.80
2022-09-15T08:41:33.362Z,17.70
2022-09-15T08:42:35.339Z,17.70
2022-09-15T08:43:45.754Z,17.70
2022-09-15T08:44:55.438Z,17.70
2022-09-15T08:46:03.879Z,17.70
2022-09-15T08:47:13.633Z,17.70
2022-09-15T08:48:20.891Z,17.70
2022-09-15T08:49:49.910Z,17.70
2022-09-15T08:50:55.015Z,17.70
2022-09-15T08:52:01.563Z,17.70
2022-09-15T08:53:09.656Z,17.70
2022-09-15T08:54:18.910Z,17.70
2022-09-15T08:55:30.001Z,17.70
2022-09-15T08:56:32.063Z,17.70
2022-09-15T08:57:34.999Z,17.70
2022-09-15T08:58:37.876Z,17.70
2022-09-15T08:59:40.940Z,17.80
2022-09-15T09:00:44.281Z,17.80
2022-09-15T09:04:08.638Z,17.70
2022-09-15T09:05:21.752Z,17.70
2022-09-15T09:06:29.797Z,17.80
2022-09-15T09:07:52.451Z,17.70
2022-09-15T09:09:06.250Z,17.70
2022-09-15T09:10:14.030Z,17.70
2022-09-15T09:11:24.506Z,17.70
2022-09-15T09:12:49.141Z,17.80
2022-09-15T09:14:01.190Z,17.80
2022-09-15T09:15:17.360Z,17.70
2022-09-15T09:16:41.318Z,17.80
2022-09-15T09:18:06.905Z,17.90
2022-09-15T09:19:31.365Z,17.90
2022-09-15T09:20:44.861Z,17.90
2022-09-15T09:21:52.809Z,17.90
2022-09-15T09:22:55.402Z,17.90
2022-09-15T09:24:06.326Z,17.90
2022-09-15T09:25:26.551Z,17.90
2022-09-15T09:26:33.234Z,17.90
2022-09-15T09:27:35.526Z,18.00
2022-09-15T09:28:42.166Z,17.90
2022-09-15T09:29:49.560Z,17.90
2022-09-15T09:30:51.976Z,17.90
2022-09-15T09:31:57.054Z,17.90
2022-09-15T09:33:13.569Z,17.90
2022-09-15T09:34:29.914Z,17.80
2022-09-15T09:35:42.830Z,17.90
2022-09-15T09:36:45.877Z,17.90
2022-09-15T09:37:49.338Z,17.90
2022-09-15T09:38:52.492Z,17.90
2022-09-15T09:39:55.513Z,17.90
2022-09-15T09:41:02.081Z,17.80
2022-09-15T09:42:06.943Z,17.80
2022-09-15T09:43:09.812Z,17.80
2022-09-15T09:44:15.749Z,17.80
2022-09-15T09:45:19.518Z,17.80
2022-09-15T09:46:22.897Z,17.70
2022-09-15T09:47:28.008Z,17.80
2022-09-15T09:48:31.400Z,17.80
2022-09-15T09:49:39.790Z,17.80
2022-09-15T09:50:43.559Z,17.80
2022-09-15T09:51:52.213Z,17.80
2022-09-15T09:52:54.138Z,17.80
2022-09-15T09:53:57.073Z,17.80
2022-09-15T09:55:01.345Z,17.80
2022-09-15T09:56:18.775Z,17.80
2022-09-15T09:57:22.960Z,17.80
2022-09-15T09:58:26.745Z,17.70
2022-09-15T09:59:40.092Z,17.70
2022-09-15T10:00:43.180Z,17.70
2022-09-15T10:02:06.682Z,17.70
2022-09-15T10:03:16.996Z,17.70
2022-09-15T10:04:19.742Z,17.70
2022-09-15T10:05:24.505Z,17.70
2022-09-15T10:06:30.804Z,17.70
2022-09-15T10:07:35.181Z,17.80
2022-09-15T10:08:39.026Z,17.80
2022-09-15T10:09:50.433Z,17.80
2022-09-15T10:10:54.083Z,17.80
2022-09-15T10:11:59.590Z,17.80
2022-09-15T10:13:04.636Z,17.80
2022-09-15T10:14:06.935Z,17.80
2022-09-15T10:15:24.146Z,17.80
2022-09-15T10:16:27.622Z,17.80
2022-09-15T10:17:42.323Z,17.80
2022-09-15T10:18:44.621Z,17.80
2022-09-15T10:19:50.534Z,17.80
2022-09-15T10:20:54.288Z,17.70
2022-09-15T10:21:58.442Z,17.70
2022-09-15T10:23:07.452Z,17.60
2022-09-15T10:24:36.404Z,17.60
2022-09-15T10:25:58.013Z,17.60
2022-09-15T10:27:18.961Z,17.60
2022-09-15T10:28:25.715Z,17.50
2022-09-15T10:29:36.535Z,17.50
2022-09-15T10:30:40.112Z,17.50
2022-09-15T10:31:44.648Z,17.50
2022-09-15T10:32:48.529Z,17.60
2022-09-15T10:33:50.708Z,17.60
2022-09-15T10:35:01.558Z,17.60
2022-09-15T10:36:13.612Z,17.60
2022-09-15T10:37:26.701Z,17.60
2022-09-15T10:38:51.820Z,17.60
2022-09-15T10:39:55.616Z,17.70
2022-09-15T10:41:09.150Z,17.70
2022-09-15T10:42:19.061Z,17.70
2022-09-15T10:43:36.109Z,17.60
2022-09-15T10:44:43.948Z,17.60
2022-09-15T10:45:49.777Z,17.60
2022-09-15T10:47:03.203Z,17.60
2022-09-15T10:48:23.190Z,17.60
2022-09-15T10:49:42.342Z,17.60
2022-09-15T10:50:54.686Z,17.60
2022-09-15T10:52:12.645Z,17.50
2022-09-15T10:53:25.462Z,17.60
2022-09-15T10:54:54.064Z,17.50
2022-09-15T10:56:03.720Z,17.50
2022-09-15T10:57:14.092Z,17.50
2022-09-15T10:58:40.995Z,17.50
2022-09-15T10:59:54.964Z,17.40
2022-09-15T11:01:09.841Z,17.50
2022-09-15T11:02:46.810Z,17.40
2022-09-15T11:04:02.921Z,17.50
2022-09-15T11:05:26.898Z,17.50
2022-09-15T11:06:36.812Z,17.50
2022-09-15T11:07:51.626Z,17.50
2022-09-15T11:09:15.662Z,17.50
2022-09-15T11:10:25.215Z,17.50
2022-09-15T11:11:40.533Z,17.40
2022-09-15T11:12:55.385Z,17.40
2022-09-15T11:14:12.235Z,17.40
2022-09-15T11:15:28.252Z,17.40
2022-09-15T11:16:44.206Z,17.40
2022-09-15T11:18:00.842Z,17.40
2022-09-15T11:19:18.465Z,17.50
2022-09-15T11:20:48.568Z,17.40
2022-09-15T11:21:55.493Z,17.50
2022-09-15T11:23:07.345Z,17.60
2022-09-15T11:24:29.627Z,17.50
2022-09-15T11:25:35.588Z,17.50
2022-09-15T11:26:43.522Z,17.50
2022-09-15T11:27:49.482Z,17.50
2022-09-15T11:28:55.982Z,17.50
2022-09-15T11:30:03.675Z,17.50
2022-09-15T11:31:14.261Z,17.50
2022-09-15T11:32:21.023Z,17.50
2022-09-15T11:33:30.690Z,17.50
2022-09-15T11:34:39.042Z,17.50
2022-09-15T11:35:46.601Z,17.50
2022-09-15T11:36:53.697Z,17.50
2022-09-15T11:38:00.502Z,17.50
2022-09-15T11:39:11.625Z,17.60
2022-09-15T11:40:18.791Z,17.60
2022-09-15T11:41:27.415Z,17.60
2022-09-15T11:42:36.213Z,17.60
2022-09-15T11:43:46.362Z,17.60
2022-09-15T11:44:49.637Z,17.60
2022-09-15T11:45:55.606Z,17.60
2022-09-15T11:47:18.194Z,17.60
2022-09-15T11:48:24.034Z,17.50
2022-09-15T11:49:31.173Z,17.50
2022-09-15T11:50:38.854Z,17.50
2022-09-15T11:51:47.386Z,17.60
2022-09-15T11:52:56.410Z,17.60
2022-09-15T11:54:05.873Z,17.60
2022-09-15T11:55:17.988Z,17.50
2022-09-15T11:56:26.030Z,17.50
2022-09-15T11:57:35.829Z,17.60
2022-09-15T11:58:55.049Z,17.70
2022-09-15T12:00:03.711Z,17.70
2022-09-15T12:01:14.152Z,17.70
2022-09-15T12:02:23.635Z,17.80
2022-09-15T12:03:31.324Z,17.80
2022-09-15T12:04:41.305Z,17.80
2022-09-15T12:05:47.794Z,17.80
2022-09-15T12:06:55.161Z,17.80
2022-09-15T12:08:01.052Z,17.90
2022-09-15T12:09:07.099Z,17.80
2022-09-15T12:10:16.166Z,17.80
2022-09-15T12:11:23.091Z,17.80
2022-09-15T12:12:29.291Z,17.80
2022-09-15T12:13:34.198Z,17.70
2022-09-15T12:14:39.027Z,17.80
2022-09-15T12:15:42.213Z,17.80
2022-09-15T12:16:44.757Z,17.80
2022-09-15T12:17:55.311Z,17.80
2022-09-15T12:19:03.982Z,17.80
2022-09-15T12:20:13.406Z,17.80
2022-09-15T12:21:21.192Z,17.70
2022-09-15T12:22:29.024Z,17.70
2022-09-15T12:23:36.381Z,17.70
2022-09-15T12:24:45.864Z,17.70
2022-09-15T12:26:04.158Z,17.70
2022-09-15T12:27:12.774Z,17.70
2022-09-15T12:28:41.626Z,17.70
2022-09-15T12:29:49.580Z,17.70
2022-09-15T12:31:13.946Z,17.70
2022-09-15T12:32:22.350Z,17.70
2022-09-15T12:33:46.353Z,17.70
2022-09-15T12:35:27.821Z,17.70
2022-09-15T12:36:42.174Z,17.70
2022-09-15T12:37:48.817Z,17.70
2022-09-15T12:38:50.808Z,17.70
2022-09-15T12:39:55.163Z,17.70
2022-09-15T12:40:59.526Z,17.80
2022-09-15T12:42:20.337Z,17.80
2022-09-15T12:43:23.957Z,17.80
2022-09-15T12:44:33.731Z,17.80
2022-09-15T12:45:37.128Z,17.80
2022-09-15T12:46:39.500Z,17.80
2022-09-15T12:47:50.686Z,17.80
2022-09-15T12:48:59.570Z,17.80
2022-09-15T12:50:09.554Z,17.80
2022-09-15T12:51:20.675Z,17.80
2022-09-15T12:52:25.418Z,17.90
2022-09-15T12:53:30.749Z,17.90
2022-09-15T12:54:35.690Z,17.90
2022-09-15T12:55:50.031Z,17.90
2022-09-15T12:56:53.422Z,17.90
2022-09-15T12:58:00.067Z,17.90
2022-09-15T12:59:06.748Z,17.90
2022-09-15T13:00:42.347Z,17.90
2022-09-15T13:01:53.298Z,17.80
2022-09-15T13:02:57.173Z,17.90
2022-09-15T13:04:23.119Z,17.90
2022-09-15T13:05:51.953Z,17.90
2022-09-15T13:07:45.917Z,17.90
2022-09-15T13:09:16.470Z,17.90
2022-09-15T13:10:36.759Z,17.90
2022-09-15T13:12:54.474Z,17.80
2022-09-15T13:14:10.775Z,17.80
2022-09-15T13:15:15.962Z,17.80
2022-09-15T13:16:28.292Z,17.80
2022-09-15T13:17:31.925Z,17.90
2022-09-15T13:18:34.546Z,17.80
2022-09-15T13:19:43.605Z,17.80
2022-09-15T13:20:53.705Z,17.80
2022-09-15T13:22:07.361Z,17.80
2022-09-15T13:23:14.158Z,17.80
2022-09-15T13:24:21.426Z,17.80
2022-09-15T13:25:27.333Z,17.80
2022-09-15T13:26:32.758Z,17.80
2022-09-15T13:27:40.543Z,17.80
2022-09-15T13:28:44.099Z,17.80
2022-09-15T13:29:51.626Z,17.70
2022-09-15T13:31:05.314Z,17.60
2022-09-15T13:32:15.523Z,17.70
2022-09-15T13:35:29.207Z,17.60
2022-09-15T13:39:00.951Z,17.70
2022-09-15T13:40:33.368Z,17.70
2022-09-15T13:42:10.233Z,17.70
2022-09-15T13:43:45.379Z,17.70
2022-09-15T13:45:03.810Z,17.70
2022-09-15T13:46:21.741Z,17.70
2022-09-15T13:47:33.782Z,17.70
2022-09-15T13:48:49.721Z,17.70
2022-09-15T13:49:55.722Z,17.80
2022-09-15T13:51:01.672Z,17.70
2022-09-15T13:52:11.827Z,17.70
2022-09-15T13:53:29.836Z,17.70
2022-09-15T13:54:31.940Z,17.70
2022-09-15T13:55:38.561Z,17.70
2022-09-15T13:56:41.860Z,17.70
2022-09-15T13:59:19.386Z,17.70
2022-09-15T14:00:24.620Z,17.60
2022-09-15T14:01:28.124Z,16.60
2022-09-15T14:02:30.615Z,17.60
2022-09-15T14:03:42.455Z,17.60
2022-09-15T14:04:51.794Z,17.60
2022-09-15T14:05:55.579Z,17.60
2022-09-15T14:07:01.910Z,17.60
2022-09-15T14:08:08.969Z,17.60
2022-09-15T14:09:16.852Z,17.60
2022-09-15T14:10:23.422Z,17.50
2022-09-15T14:11:29.784Z,17.50
2022-09-15T14:12:31.796Z,17.50
2022-09-15T14:13:40.038Z,17.50
2022-09-15T14:14:58.081Z,17.50
2022-09-15T14:16:02.058Z,17.50
2022-09-15T14:17:05.456Z,17.40
2022-09-15T14:18:19.567Z,17.40
2022-09-15T14:19:31.233Z,17.50
2022-09-15T14:20:34.414Z,17.50
2022-09-15T14:21:48.950Z,17.40
2022-09-15T14:22:51.991Z,17.40
2022-09-15T14:23:57.274Z,17.40
2022-09-15T14:25:01.506Z,17.40
2022-09-15T14:26:03.812Z,17.40
2022-09-15T14:27:10.681Z,17.40
2022-09-15T14:28:19.186Z,17.40
2022-09-15T14:29:26.042Z,17.30
2022-09-15T14:30:33.021Z,17.30
2022-09-15T14:31:38.124Z,17.30
2022-09-15T14:32:47.520Z,17.30
2022-09-15T14:33:50.889Z,17.30
2022-09-15T14:34:54.076Z,17.20
2022-09-15T14:35:57.816Z,17.30
2022-09-15T14:37:03.335Z,17.30
2022-09-15T14:38:07.052Z,17.30
2022-09-15T14:39:21.561Z,17.30
2022-09-15T14:40:28.339Z,17.30
2022-09-15T14:41:32.524Z,17.30
2022-09-15T14:42:41.134Z,17.30
2022-09-15T14:43:43.481Z,17.20
2022-09-15T14:46:15.157Z,17.20